Brighton, CO (80601)

11:35 PM MST on December 18, 2014 (GMT -0700)
Brighton East Farms | Change Station
CLOSE
Current Station
Personal Weather Station
Location: Brighton, CO
Elevation: 5145 ft
Nearby Weather Stations

Elev 5145 ft 40.00 °N, 104.76 °W | Updated 3 seconds ago

Partly Cloudy
Partly Cloudy
25.5 °F
Feels Like 18 °F
N
6.9
Wind Variable Wind from NW
Gusts 9.8 mph

Today
High -- | Low -- °F
--% Chance of Precip.
Yesterday
High -- | Low -- °F
Precip. -- in
7:15 AM 4:35 PM
Waning Crescent, 9% visible
Pressure 30.11 in
Visibility 6.0 miles
Clouds Scattered Clouds 5000 ft
Mostly Cloudy 9000 ft
Windchill 18 °F
Dew Point 22 °F
Humidity 87%
Rainfall 0.00 in
Snow Depth Not available.
UV 0 out of 12
Pollen .10 out of 12
Air Quality Not available.
Flu Activity Not available.
METAR KDEN 190553Z 24009KT 6SM BR SCT050 BKN090 M02/M04 A3008 RMK AO2 SLP195 T10221039 10006 21022 53007

More Conditions Fewer Conditions

Pressure 30.11 in
Visibility 6.0 miles
Clouds Scattered Clouds 5000 ft
Mostly Cloudy 9000 ft
Windchill 18 °F
Dew Point 22 °F
Humidity 87%
Rainfall 0.00 in
Snow Depth Not available.
UV 0 out of 12
Pollen .10 out of 12
Air Quality Not available.
Flu Activity Not available.
METAR KDEN 190553Z 24009KT 6SM BR SCT050 BKN090 M02/M04 A3008 RMK AO2 SLP195 T10221039 10006 21022 53007

More Conditions Fewer Conditions

10-Day Weather Forecast

Almanac

Astronomy

Dec. 18, 2014 Rise Set
Actual Time
Civil Twilight
Nautical Twilight
Astronomical Twilight
Moon
Length of Visible Light
Length of Day
Tomorrow will be .
, % of the Moon is Illuminated

Today's Extremes

State Highs State Lows

Community

WunderPhotos

Upload Photos

1,778,952 photos uploaded!

WunderBlogs® & News

Nearby

Air Quality

  Air Quality AQ Index Pollutant
Not available.

Snow Depth

Station Depth Elevation

Earthquake Activity

City Distance Mag. Time & Date
Minimum magnitude displayed is 2.5.

Coastal Water Temperatures

Place Temperature

Nearby Weather Stations